Time;durP1;ratioP1;P1;durP2;ratioP2;P2;SDS_P1;SDS_P2;PMS_P1;PMS_P2;Temp;Humidity;BMP_temperature;BMP_pressure;BME280_temperature;BME280_humidity;BME280_pressure;Samples;Min_cycle;Max_cycle;Signal;HPM_P1;HPM_P2
2022/09/10 00:02:05;;;;;;;2.85;0.65;;;12.70;99.90;;;;;;4973615;28;20336;-58
2022/09/10 00:04:32;;;;;;;5.40;0.80;;;12.70;99.90;;;;;;4980323;28;20032;-58
2022/09/10 00:06:59;;;;;;;4.55;0.75;;;12.70;99.90;;;;;;4981905;28;20033;-59
2022/09/10 00:09:26;;;;;;;2.55;0.68;;;12.70;99.90;;;;;;4979643;28;20132;-59
2022/09/10 00:11:53;;;;;;;;;;;12.70;99.90;;;;;;4973809;28;20411;-58
2022/09/10 00:14:22;;;;;;;1.33;0.73;;;12.70;99.90;;;;;;4976307;28;19920;-59
2022/09/10 00:16:49;;;;;;;6.72;0.75;;;12.70;99.90;;;;;;4975432;28;20685;-59
2022/09/10 00:19:17;;;;;;;3.03;1.02;;;12.80;99.90;;;;;;4979677;28;20048;-58
2022/09/10 00:21:44;;;;;;;1.67;0.70;;;12.80;99.90;;;;;;4976689;28;20127;-59
2022/09/10 00:24:11;;;;;;;;;;;12.80;99.90;;;;;;4973308;28;20113;-59
2022/09/10 00:26:39;;;;;;;1.92;0.70;;;12.90;99.90;;;;;;4973401;28;19920;-58
2022/09/10 00:29:09;;;;;;;2.85;0.80;;;12.90;99.90;;;;;;4972991;28;20044;-58
2022/09/10 00:31:36;;;;;;;2.22;0.50;;;13.00;99.90;;;;;;4978038;28;20347;-59
2022/09/10 00:34:04;;;;;;;1.50;0.60;;;13.00;99.90;;;;;;4970778;28;20058;-59
2022/09/10 00:36:38;;;;;;;1.50;0.77;;;13.00;99.90;;;;;;4971836;28;20527;-59
2022/09/10 00:39:08;;;;;;;1.88;0.70;;;13.00;99.90;;;;;;4973602;28;20364;-59
2022/09/10 00:41:38;;;;;;;4.32;0.65;;;13.00;99.90;;;;;;4971443;28;20371;-60
2022/09/10 00:44:27;;;;;;;2.25;0.68;;;12.90;99.90;;;;;;4974262;28;20265;-59
2022/09/10 00:46:58;;;;;;;0.68;0.50;;;12.90;99.90;;;;;;4972083;28;20204;-59
2022/09/10 00:49:35;;;;;;;1.85;0.50;;;12.90;99.90;;;;;;4971846;28;20038;-58
2022/09/10 00:52:02;;;;;;;;;;;12.90;99.90;;;;;;4970213;28;20796;-59
2022/09/10 00:54:32;;;;;;;3.13;0.85;;;12.90;99.90;;;;;;4971364;28;20434;-59
2022/09/10 00:57:05;;;;;;;5.75;1.02;;;12.90;99.90;;;;;;4970145;28;20052;-59
2022/09/10 00:59:33;;;;;;;2.58;0.73;;;12.80;99.90;;;;;;4970553;28;20982;-59
2022/09/10 01:02:01;;;;;;;1.48;0.70;;;12.80;99.90;;;;;;4969876;28;20252;-57
2022/09/10 01:04:28;;;;;;;4.45;0.50;;;12.80;99.90;;;;;;4969505;28;20044;-58
2022/09/10 01:06:55;;;;;;;5.05;0.32;;;12.70;99.90;;;;;;4970713;28;20045;-59
2022/09/10 01:09:24;;;;;;;3.80;0.40;;;12.70;99.90;;;;;;4972462;28;20393;-59
2022/09/10 01:12:14;;;;;;;0.82;0.30;;;12.60;99.90;;;;;;4971464;28;20049;-59
2022/09/10 01:15:14;;;;;;;0.68;0.40;;;12.60;99.90;;;;;;4970961;28;20502;-60
2022/09/10 01:18:26;;;;;;;0.60;0.60;;;12.60;99.90;;;;;;4983994;28;20601;-58
2022/09/10 01:21:16;;;;;;;1.33;0.50;;;12.60;99.90;;;;;;4972729;28;20054;-59
2022/09/10 01:24:15;;;;;;;2.00;0.40;;;12.60;99.90;;;;;;4937030;28;20886;-59
2022/09/10 01:27:05;;;;;;;1.75;0.63;;;12.70;99.90;;;;;;4979968;28;20048;-59
2022/09/10 01:29:58;;;;;;;1.95;0.52;;;12.70;99.90;;;;;;4980550;28;20183;-59
2022/09/10 01:32:47;;;;;;;0.82;0.40;;;12.80;99.90;;;;;;4976128;28;20098;-59
2022/09/10 01:35:24;;;;;;;2.33;0.85;;;12.90;99.90;;;;;;4975445;28;20048;-59
2022/09/10 01:37:55;;;;;;;0.70;0.70;;;12.90;99.90;;;;;;4976328;28;20063;-59
2022/09/10 01:40:28;;;;;;;2.17;0.30;;;13.00;99.90;;;;;;4985061;28;20049;-58
2022/09/10 01:43:04;;;;;;;3.58;0.52;;;13.00;99.90;;;;;;4983456;28;20045;-58
2022/09/10 01:45:53;;;;;;;3.92;0.82;;;13.10;99.90;;;;;;4969683;28;20892;-58
2022/09/10 01:48:53;;;;;;;2.17;0.68;;;13.10;99.90;;;;;;4974860;28;20885;-59
2022/09/10 01:51:42;;;;;;;1.45;0.43;;;13.10;99.90;;;;;;4960039;28;20041;-58
2022/09/10 01:54:25;;;;;;;0.98;0.50;;;13.20;99.90;;;;;;4994355;28;20056;-59
2022/09/10 01:56:57;;;;;;;1.73;0.50;;;13.10;99.90;;;;;;4970840;28;20049;-58
2022/09/10 02:00:01;;;;;;;1.33;0.45;;;13.10;99.90;;;;;;4972243;28;20604;-58
2022/09/10 02:02:49;;;;;;;1.55;0.70;;;13.10;99.90;;;;;;4976017;28;20426;-57
2022/09/10 02:05:20;;;;;;;1.98;0.50;;;13.10;99.90;;;;;;4977766;28;20563;-59
2022/09/10 02:07:57;;;;;;;2.20;0.47;;;13.00;99.90;;;;;;4982154;28;20326;-59
2022/09/10 02:10:25;;;;;;;0.68;0.68;;;13.00;99.90;;;;;;4988121;28;20237;-59
2022/09/10 02:12:52;;;;;;;1.52;0.40;;;12.90;99.90;;;;;;4974535;28;20380;-58
2022/09/10 02:15:48;;;;;;;1.13;0.52;;;12.90;99.90;;;;;;4976478;28;20628;-58
2022/09/10 02:18:21;;;;;;;1.50;0.47;;;12.90;99.90;;;;;;4982875;28;20894;-58
2022/09/10 02:20:50;;;;;;;1.70;0.68;;;12.90;99.90;;;;;;4972830;28;20056;-59
2022/09/10 02:23:21;;;;;;;2.45;0.60;;;12.80;99.90;;;;;;4970357;28;20367;-59
2022/09/10 02:25:50;;;;;;;1.52;0.73;;;12.80;99.90;;;;;;4973775;28;20848;-57
2022/09/10 02:28:17;;;;;;;1.42;0.60;;;12.80;99.90;;;;;;4970421;28;20148;-60
2022/09/10 02:30:47;;;;;;;0.95;0.65;;;12.80;99.90;;;;;;4967360;28;20037;-59
2022/09/10 02:33:17;;;;;;;0.70;0.43;;;12.80;99.90;;;;;;4974881;28;20038;-57
2022/09/10 02:35:46;;;;;;;1.17;0.65;;;12.80;99.90;;;;;;4971499;28;20320;-58
2022/09/10 02:38:15;;;;;;;1.10;0.40;;;12.80;99.90;;;;;;4973816;28;20365;-56
2022/09/10 02:40:42;;;;;;;1.90;0.75;;;12.80;99.90;;;;;;4971918;28;20785;-57
2022/09/10 02:43:09;;;;;;;;;;;12.80;99.90;;;;;;4966562;28;20030;-56
2022/09/10 02:45:39;;;;;;;3.25;0.73;;;12.80;99.90;;;;;;4971757;28;20081;-57
2022/09/10 02:48:06;;;;;;;4.07;0.75;;;12.80;99.90;;;;;;4976469;28;20053;-58
2022/09/10 02:50:34;;;;;;;2.85;0.75;;;12.80;99.90;;;;;;4971261;28;20041;-56
2022/09/10 02:53:03;;;;;;;0.43;0.40;;;12.80;99.90;;;;;;4972206;28;20049;-59
2022/09/10 02:55:30;;;;;;;1.92;0.57;;;12.70;99.90;;;;;;4981005;28;20217;-57
2022/09/10 02:57:57;;;;;;;4.97;0.47;;;12.70;99.90;;;;;;4982269;28;20049;-56
2022/09/10 03:00:24;;;;;;;1.90;0.60;;;12.70;99.90;;;;;;4980492;28;20040;-56
2022/09/10 03:02:53;;;;;;;1.83;0.70;;;12.70;99.90;;;;;;4980395;28;20041;-57
2022/09/10 03:05:20;;;;;;;1.88;0.80;;;12.70;99.90;;;;;;4975915;28;20053;-57
2022/09/10 03:07:47;;;;;;;2.25;0.43;;;12.70;99.90;;;;;;4973110;28;20361;-59
2022/09/10 03:10:15;;;;;;;1.75;0.63;;;12.60;99.90;;;;;;4971874;28;20038;-59
2022/09/10 03:12:44;;;;;;;1.30;0.60;;;12.60;99.90;;;;;;4981962;28;20052;-58
2022/09/10 03:15:11;;;;;;;5.53;0.85;;;12.60;99.90;;;;;;4971090;28;20217;-56
2022/09/10 03:17:38;;;;;;;0.82;0.60;;;12.50;99.90;;;;;;4975405;28;20210;-56
2022/09/10 03:20:07;;;;;;;2.40;0.85;;;12.50;99.90;;;;;;4982731;28;20577;-57
2022/09/10 03:22:34;;;;;;;3.95;0.70;;;12.50;99.90;;;;;;4976524;28;20041;-56
2022/09/10 03:25:01;;;;;;;2.03;0.70;;;12.40;99.90;;;;;;4972606;28;20037;-56
2022/09/10 03:27:28;;;;;;;;;;;12.40;99.90;;;;;;4971950;28;20206;-56
2022/09/10 03:29:55;;;;;;;0.70;0.55;;;12.40;99.90;;;;;;4971137;28;19932;-55
2022/09/10 03:32:22;;;;;;;1.73;0.60;;;12.40;99.90;;;;;;4976003;28;20269;-57
2022/09/10 03:34:49;;;;;;;;;;;12.30;99.90;;;;;;4974400;28;20245;-56
2022/09/10 03:37:17;;;;;;;3.33;0.65;;;12.30;99.90;;;;;;4970025;28;19920;-56
2022/09/10 03:39:44;;;;;;;1.48;0.70;;;12.30;99.90;;;;;;4972354;28;20205;-55
2022/09/10 03:42:15;;;;;;;4.32;0.80;;;12.30;99.90;;;;;;4968907;28;20042;-55
2022/09/10 03:44:42;;;;;;;0.90;0.80;;;12.20;99.90;;;;;;4969891;28;20434;-56
2022/09/10 03:47:11;;;;;;;3.53;0.50;;;12.20;99.90;;;;;;4981569;28;20569;-56
2022/09/10 03:49:38;;;;;;;2.78;0.60;;;12.10;99.90;;;;;;4981542;28;20123;-55
2022/09/10 03:52:06;;;;;;;0.60;0.50;;;12.10;99.90;;;;;;4964959;28;20072;-57
2022/09/10 03:54:36;;;;;;;1.25;0.75;;;12.10;99.90;;;;;;4984599;28;20037;-55
2022/09/10 03:57:03;;;;;;;3.10;1.55;;;12.10;99.90;;;;;;4973757;28;20450;-56
2022/09/10 03:59:31;;;;;;;0.88;0.47;;;12.10;99.90;;;;;;4983121;28;20229;-64
2022/09/10 04:02:01;;;;;;;1.73;0.70;;;12.10;99.90;;;;;;4972139;28;20859;-58
2022/09/10 04:04:30;;;;;;;3.60;0.73;;;12.00;99.90;;;;;;4964794;28;20601;-57
2022/09/10 04:06:57;;;;;;;2.75;1.08;;;12.00;99.90;;;;;;4966656;28;20236;-58
2022/09/10 04:09:23;;;;;;;0.50;0.47;;;12.00;99.90;;;;;;4968369;28;20559;-58
2022/09/10 04:11:50;;;;;;;4.03;0.75;;;12.00;99.90;;;;;;4972977;28;20523;-58
2022/09/10 04:14:22;;;;;;;1.48;0.55;;;12.00;99.90;;;;;;4963951;28;20856;-58
2022/09/10 04:16:49;;;;;;;0.73;0.50;;;12.00;99.90;;;;;;4964401;28;20041;-58
2022/09/10 04:19:17;;;;;;;4.88;1.10;;;12.10;99.90;;;;;;4976317;28;20581;-58
2022/09/10 04:21:47;;;;;;;3.50;0.82;;;12.00;99.90;;;;;;4969669;28;20041;-58
2022/09/10 04:24:14;;;;;;;0.75;0.75;;;12.00;99.90;;;;;;4981256;28;20298;-57
2022/09/10 04:26:41;;;;;;;1.13;0.60;;;12.00;99.90;;;;;;4978330;28;20052;-58
2022/09/10 04:29:12;;;;;;;1.13;0.85;;;12.00;99.90;;;;;;4983584;28;20533;-58
2022/09/10 04:31:38;;;;;;;3.13;0.68;;;12.00;99.90;;;;;;4976027;28;20575;-58
2022/09/10 04:34:11;;;;;;;4.22;1.27;;;12.00;99.90;;;;;;4980792;28;20052;-58
2022/09/10 04:36:38;;;;;;;4.57;1.77;;;12.00;99.90;;;;;;4978164;28;20049;-58
2022/09/10 04:39:06;;;;;;;3.15;0.90;;;12.00;99.90;;;;;;4973159;28;20060;-58
2022/09/10 04:41:35;;;;;;;1.92;1.23;;;12.00;99.90;;;;;;4970754;28;20567;-58
2022/09/10 04:44:05;;;;;;;0.80;0.80;;;12.00;99.90;;;;;;4976906;28;20037;-58
2022/09/10 04:46:33;;;;;;;3.00;1.42;;;12.00;99.90;;;;;;4980802;28;20040;-57
2022/09/10 04:49:01;;;;;;;0.82;0.70;;;12.00;99.90;;;;;;4972286;28;20171;-58
2022/09/10 04:51:29;;;;;;;1.33;0.80;;;12.00;99.90;;;;;;4974193;28;20068;-59
2022/09/10 04:53:58;;;;;;;1.00;1.00;;;12.00;99.90;;;;;;4981376;28;20049;-59
2022/09/10 04:56:30;;;;;;;3.85;1.40;;;12.10;99.90;;;;;;4981285;28;20048;-59
2022/09/10 04:58:58;;;;;;;5.32;1.13;;;12.00;99.90;;;;;;4966741;28;20038;-57
2022/09/10 05:01:27;;;;;;;1.20;0.93;;;12.00;99.90;;;;;;4969181;28;20057;-59
2022/09/10 05:03:54;;;;;;;0.85;0.70;;;12.00;99.90;;;;;;4980930;28;20551;-59
2022/09/10 05:06:22;;;;;;;4.68;0.90;;;12.00;99.90;;;;;;4974088;28;20033;-58
2022/09/10 05:08:49;;;;;;;2.22;0.80;;;12.00;99.90;;;;;;4959123;28;20198;-59
2022/09/10 05:11:18;;;;;;;0.90;0.90;;;12.10;99.90;;;;;;4981164;28;20209;-60
2022/09/10 05:13:46;;;;;;;4.25;1.05;;;12.10;99.90;;;;;;4979427;28;20854;-59
2022/09/10 05:16:16;;;;;;;2.15;0.90;;;12.00;99.90;;;;;;4980432;28;20041;-59
2022/09/10 05:18:44;;;;;;;1.50;0.75;;;12.10;99.90;;;;;;4969282;28;20045;-58
2022/09/10 05:21:12;;;;;;;3.80;1.20;;;12.10;99.90;;;;;;4971057;28;20238;-58
2022/09/10 05:23:40;;;;;;;0.70;0.70;;;12.10;99.90;;;;;;4971258;28;20392;-59
2022/09/10 05:26:08;;;;;;;4.55;2.25;;;12.10;99.90;;;;;;4951441;28;20052;-57
2022/09/10 05:28:36;;;;;;;0.90;0.80;;;12.10;99.90;;;;;;4966437;28;20926;-58
2022/09/10 05:31:08;;;;;;;2.17;0.80;;;12.10;99.90;;;;;;4966523;28;20110;-58
2022/09/10 05:33:36;;;;;;;2.35;1.13;;;12.10;99.90;;;;;;4974601;28;20056;-59
2022/09/10 05:36:04;;;;;;;2.35;0.93;;;12.10;99.90;;;;;;4974748;28;20602;-59
2022/09/10 05:38:30;;;;;;;1.67;0.95;;;12.20;99.90;;;;;;4983374;28;20488;-58
2022/09/10 05:40:57;;;;;;;1.33;0.70;;;12.10;99.90;;;;;;4980436;28;20033;-59
2022/09/10 05:43:26;;;;;;;6.18;1.23;;;12.20;99.90;;;;;;4967202;28;20052;-59
2022/09/10 05:45:55;;;;;;;1.80;0.80;;;12.20;99.90;;;;;;4965426;28;20128;-60
2022/09/10 05:48:22;;;;;;;3.33;1.08;;;12.20;99.90;;;;;;4971973;28;20398;-55
2022/09/10 05:50:49;;;;;;;2.53;1.00;;;12.20;99.90;;;;;;4976986;28;20269;-55
2022/09/10 05:53:17;;;;;;;2.70;0.90;;;12.20;99.90;;;;;;4967703;28;20037;-55
2022/09/10 05:55:44;;;;;;;1.75;0.90;;;12.30;99.90;;;;;;4969948;28;20053;-55
2022/09/10 05:58:12;;;;;;;1.10;0.90;;;12.30;99.90;;;;;;4974266;28;20049;-55
2022/09/10 06:00:44;;;;;;;3.72;1.40;;;12.30;99.90;;;;;;4976901;28;20042;-55
2022/09/10 06:03:12;;;;;;;1.73;0.90;;;12.40;99.90;;;;;;4986644;28;20890;-55
2022/09/10 06:05:52;;;;;;;1.98;0.88;;;12.40;99.90;;;;;;4971663;28;20037;-54
2022/09/10 06:08:23;;;;;;;5.25;1.58;;;12.50;99.90;;;;;;4981458;28;20076;-55
2022/09/10 06:10:56;;;;;;;2.33;1.17;;;12.60;99.90;;;;;;4979927;28;20051;-55
2022/09/10 06:13:26;;;;;;;2.80;1.02;;;12.60;99.90;;;;;;4992501;28;20376;-55
2022/09/10 06:15:54;;;;;;;1.95;0.90;;;12.60;99.90;;;;;;4979213;28;20040;-55
2022/09/10 06:18:21;;;;;;;1.73;1.13;;;12.70;99.90;;;;;;4971210;28;20053;-56
2022/09/10 06:20:48;;;;;;;4.78;0.95;;;12.70;99.90;;;;;;4978774;28;20237;-57
2022/09/10 06:23:17;;;;;;;1.33;0.80;;;12.70;99.90;;;;;;4984207;28;20375;-55
2022/09/10 06:25:47;;;;;;;1.48;0.90;;;12.80;99.90;;;;;;4985409;28;20053;-55
2022/09/10 06:28:14;;;;;;;1.08;0.88;;;12.80;99.90;;;;;;4973140;28;20053;-55
2022/09/10 06:30:41;;;;;;;3.30;1.45;;;12.90;99.90;;;;;;4975429;28;20052;-55
2022/09/10 06:33:12;;;;;;;1.30;0.75;;;12.90;99.90;;;;;;4980753;28;20111;-55
2022/09/10 06:35:39;;;;;;;1.88;0.90;;;12.90;99.90;;;;;;4983820;28;20123;-56
2022/09/10 06:38:06;;;;;;;2.78;1.10;;;13.00;99.90;;;;;;4979123;28;20341;-55
2022/09/10 06:40:33;;;;;;;0.60;0.60;;;13.10;99.90;;;;;;4977352;28;20036;-55
2022/09/10 06:43:01;;;;;;;4.88;0.95;;;13.10;99.90;;;;;;4983704;28;20355;-54
2022/09/10 06:45:48;;;;;;;3.00;0.77;;;13.20;99.90;;;;;;4980424;28;20056;-57
2022/09/10 06:48:50;;;;;;;3.35;0.73;;;13.20;99.90;;;;;;4924553;28;20088;-57
2022/09/10 06:51:20;;;;;;;1.42;0.80;;;13.30;99.90;;;;;;4964858;28;20045;-57
2022/09/10 06:53:49;;;;;;;4.57;0.90;;;13.30;99.90;;;;;;4971167;28;20053;-57
2022/09/10 06:56:19;;;;;;;4.90;0.70;;;13.30;99.90;;;;;;4982223;28;20041;-57
2022/09/10 06:58:47;;;;;;;6.57;1.75;;;13.30;99.90;;;;;;4968765;28;20640;-55
2022/09/10 07:01:17;;;;;;;3.15;0.60;;;13.30;99.90;;;;;;4983130;28;20056;-57
2022/09/10 07:03:56;;;;;;;3.33;0.60;;;13.30;99.90;;;;;;4976143;28;20360;-57
2022/09/10 07:06:25;;;;;;;3.10;0.90;;;13.40;99.90;;;;;;4966996;28;20163;-57
2022/09/10 07:08:57;;;;;;;1.67;0.50;;;13.40;99.90;;;;;;4974461;28;20691;-54
2022/09/10 07:11:31;;;;;;;2.15;0.60;;;13.50;99.90;;;;;;4970765;28;20087;-56
2022/09/10 07:14:00;;;;;;;2.60;0.80;;;13.50;99.90;;;;;;4966779;28;20202;-56
2022/09/10 07:16:30;;;;;;;2.35;0.88;;;13.60;99.90;;;;;;4979484;28;20033;-56
2022/09/10 07:18:59;;;;;;;2.45;0.60;;;13.60;99.90;;;;;;4973248;28;20347;-55
2022/09/10 07:21:39;;;;;;;0.63;0.63;;;13.60;99.90;;;;;;4977804;28;20033;-55
2022/09/10 07:24:11;;;;;;;1.52;0.70;;;13.70;99.90;;;;;;4971794;28;20270;-61
2022/09/10 07:26:41;;;;;;;0.55;0.50;;;13.70;99.90;;;;;;4982935;28;20594;-56
2022/09/10 07:29:08;;;;;;;0.80;0.60;;;13.70;99.90;;;;;;4976283;28;20026;-56
2022/09/10 07:31:37;;;;;;;3.15;0.90;;;13.70;99.90;;;;;;4983291;28;20920;-54
2022/09/10 07:34:08;;;;;;;3.05;0.63;;;13.70;99.90;;;;;;4974400;28;20850;-56
2022/09/10 07:36:35;;;;;;;2.38;0.75;;;13.80;99.90;;;;;;4982796;28;20037;-55
2022/09/10 07:39:03;;;;;;;2.10;0.50;;;13.80;99.90;;;;;;4982834;28;20052;-55
2022/09/10 07:41:34;;;;;;;4.57;0.80;;;13.90;99.90;;;;;;4983327;28;20044;-55
2022/09/10 07:44:03;;;;;;;1.13;0.60;;;14.00;99.90;;;;;;4980849;28;20579;-55
2022/09/10 07:46:36;;;;;;;2.58;0.68;;;14.10;99.90;;;;;;4974493;28;20380;-55
2022/09/10 07:49:08;;;;;;;1.80;0.60;;;14.10;99.90;;;;;;4972804;28;20052;-55
2022/09/10 07:51:38;;;;;;;2.97;0.55;;;14.20;99.90;;;;;;4978774;28;20972;-54
2022/09/10 07:54:05;;;;;;;1.92;0.70;;;14.30;99.90;;;;;;4964293;28;20179;-55
2022/09/10 07:56:37;;;;;;;3.78;0.70;;;14.40;99.90;;;;;;4982544;28;20033;-54
2022/09/10 07:59:07;;;;;;;2.00;0.70;;;14.50;99.90;;;;;;4973585;28;20041;-58
2022/09/10 08:01:39;;;;;;;1.33;0.55;;;14.50;99.90;;;;;;4971642;28;20473;-57
2022/09/10 08:04:07;;;;;;;3.63;1.23;;;14.60;99.90;;;;;;4957820;28;20205;-56
2022/09/10 08:06:37;;;;;;;1.65;0.60;;;14.60;99.90;;;;;;4982664;28;20049;-55
2022/09/10 08:09:07;;;;;;;1.23;0.85;;;14.60;99.90;;;;;;4970390;28;20055;-58
2022/09/10 08:11:40;;;;;;;1.42;0.75;;;14.50;99.90;;;;;;4981354;28;20329;-56
2022/09/10 08:14:12;;;;;;;1.67;0.70;;;14.60;99.90;;;;;;4975196;28;20314;-57
2022/09/10 08:16:39;;;;;;;1.33;0.60;;;14.50;99.90;;;;;;4966711;28;20230;-58
2022/09/10 08:19:13;;;;;;;3.33;1.33;;;14.50;99.90;;;;;;4983860;28;20433;-57
2022/09/10 08:21:40;;;;;;;4.47;0.90;;;14.50;99.90;;;;;;4983089;28;20187;-57
2022/09/10 08:24:09;;;;;;;1.80;0.60;;;14.60;99.90;;;;;;4954483;28;20152;-57
2022/09/10 08:26:38;;;;;;;0.88;0.52;;;14.60;99.90;;;;;;4983178;28;20041;-57
2022/09/10 08:29:06;;;;;;;2.70;0.98;;;14.60;99.90;;;;;;4982211;28;20045;-57
2022/09/10 08:31:33;;;;;;;3.97;1.27;;;14.70;99.90;;;;;;4976520;28;20055;-57
2022/09/10 08:34:14;;;;;;;2.95;1.05;;;14.80;99.90;;;;;;4982182;28;20356;-57
2022/09/10 08:36:48;;;;;;;7.68;0.95;;;14.90;99.90;;;;;;4982290;28;20049;-57
2022/09/10 08:39:15;;;;;;;1.75;0.80;;;14.90;99.90;;;;;;4972233;28;20740;-57
2022/09/10 08:42:02;;;;;;;3.78;0.82;;;15.00;99.90;;;;;;4966502;28;20210;-58
2022/09/10 08:44:47;;;;;;;3.50;1.17;;;15.10;99.90;;;;;;4979252;28;20037;-57
2022/09/10 08:47:28;;;;;;;5.93;1.27;;;15.20;99.90;;;;;;4981980;28;20060;-57
2022/09/10 08:50:28;;;;;;;1.95;0.60;;;15.30;99.90;;;;;;4983406;28;20056;-57
2022/09/10 08:53:04;;;;;;;3.85;1.10;;;15.30;99.90;;;;;;4975746;28;20051;-57
2022/09/10 08:55:35;;;;;;;4.70;0.90;;;15.40;99.90;;;;;;4976789;28;20371;-57
2022/09/10 08:58:17;;;;;;;4.85;1.00;;;15.40;99.90;;;;;;4977871;28;20072;-57
2022/09/10 09:00:54;;;;;;;8.00;1.13;;;15.40;99.90;;;;;;4976347;28;20044;-57
2022/09/10 09:03:45;;;;;;;4.40;1.20;;;15.40;99.90;;;;;;4970505;28;20199;-57
2022/09/10 09:06:26;;;;;;;1.42;0.65;;;15.40;99.90;;;;;;4964449;28;21296;-58
2022/09/10 09:08:53;;;;;;;2.15;0.63;;;15.40;99.90;;;;;;4974303;28;20038;-55
2022/09/10 09:11:30;;;;;;;3.45;0.85;;;15.40;99.90;;;;;;4976785;28;20223;-56
2022/09/10 09:14:28;;;;;;;6.90;0.93;;;15.40;99.90;;;;;;4974160;28;20350;-56
2022/09/10 09:17:10;;;;;;;2.83;1.00;;;15.40;99.90;;;;;;4969995;28;20827;-58
2022/09/10 09:20:17;;;;;;;4.32;0.98;;;15.40;99.90;;;;;;4970340;28;20037;-56
2022/09/10 09:23:31;;;;;;;2.20;0.88;;;15.40;99.90;;;;;;4966806;28;20041;-56
2022/09/10 09:26:19;;;;;;;4.78;0.85;;;15.40;99.90;;;;;;4977252;28;20123;-56
2022/09/10 09:28:56;;;;;;;4.10;0.85;;;15.40;99.90;;;;;;4974351;28;20065;-55
2022/09/10 09:31:31;;;;;;;3.20;0.73;;;15.40;99.90;;;;;;4971022;28;20787;-57
2022/09/10 09:34:09;;;;;;;3.53;0.98;;;15.40;99.90;;;;;;4972548;28;20041;-56
2022/09/10 09:36:41;;;;;;;2.97;0.93;;;15.40;99.90;;;;;;4981510;28;20344;-57
2022/09/10 09:39:44;;;;;;;2.03;0.65;;;15.40;99.90;;;;;;4975728;28;20349;-56
2022/09/10 09:42:22;;;;;;;3.50;0.80;;;15.40;99.90;;;;;;4957953;28;20152;-56
2022/09/10 09:44:56;;;;;;;3.33;0.90;;;15.40;99.90;;;;;;4973030;28;20056;-56
2022/09/10 09:47:24;;;;;;;5.68;1.45;;;15.30;99.90;;;;;;4974927;28;20328;-57
2022/09/10 09:49:52;;;;;;;6.68;1.50;;;15.30;99.90;;;;;;4976416;28;20049;-56
2022/09/10 09:52:24;;;;;;;3.08;0.98;;;15.30;99.90;;;;;;4967160;28;20589;-57
2022/09/10 09:54:55;;;;;;;6.68;1.48;;;15.30;99.90;;;;;;4971974;28;20960;-57
2022/09/10 09:57:41;;;;;;;3.47;1.42;;;15.40;99.90;;;;;;4972151;28;20034;-57
2022/09/10 10:00:35;;;;;;;3.85;0.73;;;15.40;99.90;;;;;;4979015;28;20045;-57
2022/09/10 10:03:24;;;;;;;1.92;0.60;;;15.50;99.90;;;;;;4971116;28;20187;-56
2022/09/10 10:06:07;;;;;;;1.42;0.45;;;15.50;99.90;;;;;;4957108;28;20365;-57
2022/09/10 10:08:41;;;;;;;1.85;0.50;;;15.50;99.90;;;;;;4975203;28;20037;-55
2022/09/10 10:11:09;;;;;;;1.45;0.68;;;15.50;99.90;;;;;;4973717;28;20088;-56
2022/09/10 10:13:39;;;;;;;5.15;0.77;;;15.50;99.90;;;;;;4972998;28;20037;-58
2022/09/10 10:16:19;;;;;;;2.83;0.50;;;15.60;99.90;;;;;;4983353;28;20147;-57
2022/09/10 10:18:47;;;;;;;2.47;0.50;;;15.60;99.90;;;;;;4980773;28;20550;-57
2022/09/10 10:21:14;;;;;;;3.42;0.60;;;15.60;99.90;;;;;;4984077;28;20041;-57
2022/09/10 10:23:41;;;;;;;;;;;15.50;99.90;;;;;;4983492;28;20204;-58
2022/09/10 10:26:35;;;;;;;3.28;0.50;;;15.50;99.90;;;;;;4975370;28;19921;-57
2022/09/10 10:29:05;;;;;;;3.20;1.10;;;15.50;99.90;;;;;;4962337;28;20075;-58
2022/09/10 10:31:42;;;;;;;2.88;0.63;;;15.60;99.90;;;;;;4976292;28;20621;-57
2022/09/10 10:34:09;;;;;;;5.07;1.00;;;15.80;99.90;;;;;;4983846;28;20045;-56
2022/09/10 10:36:59;;;;;;;1.23;0.60;;;15.90;99.90;;;;;;4975441;28;20565;-56
2022/09/10 10:40:00;;;;;;;2.45;0.93;;;15.90;99.90;;;;;;4976803;28;20041;-55
2022/09/10 10:42:34;;;;;;;2.78;0.65;;;16.00;99.90;;;;;;4978657;28;20234;-55
2022/09/10 10:45:23;;;;;;;2.42;0.80;;;16.20;99.90;;;;;;4966033;28;20862;-54
2022/09/10 10:47:53;;;;;;;0.70;0.30;;;16.40;99.90;;;;;;4974398;28;20400;-56
2022/09/10 10:50:46;;;;;;;4.38;0.55;;;16.50;99.90;;;;;;4966740;28;20575;-56
2022/09/10 10:53:42;;;;;;;3.75;0.85;;;16.70;99.90;;;;;;4977399;28;20041;-56
2022/09/10 10:56:39;;;;;;;2.17;0.80;;;16.80;99.90;;;;;;4974774;28;20041;-57
2022/09/10 10:59:17;;;;;;;6.27;0.90;;;16.90;99.90;;;;;;4974364;28;20844;-60
2022/09/10 11:02:20;;;;;;;1.48;0.47;;;17.10;99.90;;;;;;4974773;28;20052;-61
2022/09/10 11:04:52;;;;;;;0.95;0.60;;;17.30;99.90;;;;;;4940215;28;20099;-60
2022/09/10 11:07:41;;;;;;;0.82;0.52;;;17.60;99.90;;;;;;4975077;28;20860;-59
2022/09/10 11:10:26;;;;;;;4.80;1.25;;;18.00;99.90;;;;;;4975083;28;20041;-55
2022/09/10 11:13:08;;;;;;;3.55;1.10;;;18.40;99.90;;;;;;4977899;28;20060;-56
2022/09/10 11:15:54;;;;;;;4.57;0.82;;;18.80;99.90;;;;;;4982979;28;20155;-57
2022/09/10 11:18:46;;;;;;;8.68;1.40;;;19.20;99.90;;;;;;4972414;28;20100;-58
2022/09/10 11:21:28;;;;;;;1.65;0.57;;;19.40;99.90;;;;;;4974660;28;20938;-57
2022/09/10 11:24:35;;;;;;;5.13;1.45;;;19.40;99.90;;;;;;4982649;28;20843;-57
2022/09/10 11:27:22;;;;;;;2.20;0.60;;;19.10;99.90;;;;;;4956388;28;20158;-58
2022/09/10 11:30:05;;;;;;;3.28;0.40;;;18.80;99.90;;;;;;4974039;28;20752;-57
2022/09/10 11:32:38;;;;;;;3.55;1.00;;;18.50;99.90;;;;;;4975897;28;20674;-57
2022/09/10 11:35:21;;;;;;;1.38;0.55;;;18.00;99.90;;;;;;4976802;28;20147;-58
2022/09/10 11:37:57;;;;;;;2.97;0.70;;;17.70;99.90;;;;;;4973898;28;20076;-58
2022/09/10 11:40:38;;;;;;;2.40;0.93;;;17.40;99.90;;;;;;4973799;28;20518;-55
2022/09/10 11:43:12;;;;;;;4.43;0.63;;;17.00;99.90;;;;;;4967697;28;20160;-58
2022/09/10 11:45:46;;;;;;;1.95;0.80;;;16.60;99.90;;;;;;4969275;28;20500;-57
2022/09/10 11:48:33;;;;;;;4.40;1.10;;;16.40;99.90;;;;;;4980340;28;20079;-57
2022/09/10 11:54:26;;;;;;;8.52;1.52;;;16.10;99.90;;;;;;4974162;28;20610;-58
2022/09/10 11:57:22;;;;;;;2.88;0.95;;;15.80;99.90;;;;;;4966387;28;20037;-58
2022/09/10 12:00:10;;;;;;;0.88;0.55;;;15.70;99.90;;;;;;4937315;28;20042;-59
2022/09/10 12:03:19;;;;;;;4.43;1.00;;;15.60;99.90;;;;;;4972101;28;20068;-60
2022/09/10 12:05:59;;;;;;;6.50;1.70;;;15.40;99.90;;;;;;4981083;28;20462;-57
2022/09/10 12:09:09;;;;;;;4.50;1.38;;;15.20;99.90;;;;;;4968449;28;20932;-57
2022/09/10 12:11:46;;;;;;;7.82;2.33;;;14.80;99.90;;;;;;4973824;28;20190;-56
2022/09/10 12:14:20;;;;;;;2.45;1.10;;;14.60;99.90;;;;;;4977079;28;20572;-57
2022/09/10 12:17:02;;;;;;;3.65;1.38;;;14.30;99.90;;;;;;4981392;28;20527;-56
2022/09/10 12:19:44;;;;;;;6.38;1.50;;;14.20;99.90;;;;;;4971636;28;20108;-54
2022/09/10 12:22:25;;;;;;;6.35;1.70;;;14.10;99.90;;;;;;4976744;28;20048;-57
2022/09/10 12:24:58;;;;;;;4.40;1.17;;;14.00;99.90;;;;;;4953729;28;20483;-56
2022/09/10 12:27:44;;;;;;;2.38;1.00;;;14.00;99.90;;;;;;4979365;28;20151;-56
2022/09/10 12:30:45;;;;;;;2.28;1.00;;;13.90;99.90;;;;;;4976375;28;20049;-56
2022/09/10 12:33:12;;;;;;;5.10;1.08;;;13.80;99.90;;;;;;4974937;28;20865;-56
2022/09/10 12:36:31;;;;;;;4.05;1.25;;;13.70;99.90;;;;;;4969810;28;20037;-56
2022/09/10 12:39:17;;;;;;;5.30;1.40;;;13.70;99.90;;;;;;4966197;28;20207;-56
2022/09/10 12:41:44;;;;;;;5.72;2.25;;;13.50;99.90;;;;;;4970920;28;20044;-56
2022/09/10 12:44:35;;;;;;;9.10;3.80;;;13.50;99.90;;;;;;4968181;28;20227;-56
2022/09/10 12:47:15;;;;;;;6.55;3.33;;;13.40;99.90;;;;;;4972051;28;20056;-55
2022/09/10 12:50:06;;;;;;;3.90;1.20;;;13.40;99.90;;;;;;4967094;28;20306;-56
2022/09/10 12:52:51;;;;;;;6.40;3.28;;;13.30;99.90;;;;;;4964199;28;20636;-55
2022/09/10 12:55:36;;;;;;;7.00;3.65;;;13.30;99.90;;;;;;4970529;28;20773;-57
2022/09/10 12:58:42;;;;;;;6.80;1.90;;;13.20;99.90;;;;;;4939646;28;20227;-55
2022/09/10 13:01:19;;;;;;;2.17;1.50;;;13.20;99.90;;;;;;4970983;28;20042;-57
2022/09/10 13:03:55;;;;;;;8.73;3.47;;;13.20;99.90;;;;;;4978347;28;20037;-57
2022/09/10 13:06:46;;;;;;;3.28;1.80;;;13.20;99.90;;;;;;5006715;28;20048;-54
2022/09/10 13:09:24;;;;;;;7.32;2.20;;;13.20;99.90;;;;;;5023004;28;20053;-53
2022/09/10 13:11:55;;;;;;;4.05;1.83;;;13.20;99.90;;;;;;5012685;28;20080;-55
2022/09/10 13:14:50;;;;;;;2.92;1.80;;;13.20;99.90;;;;;;5020420;28;20041;-55
2022/09/10 13:17:49;;;;;;;3.72;1.70;;;13.20;99.90;;;;;;4925573;28;20046;-55
2022/09/10 13:20:22;;;;;;;4.53;1.98;;;13.20;99.90;;;;;;5027914;28;20037;-53
2022/09/10 13:23:08;;;;;;;2.03;1.00;;;13.30;99.90;;;;;;5029083;28;20142;-55
2022/09/10 13:25:41;;;;;;;4.57;1.70;;;13.30;99.90;;;;;;5023050;28;20132;-55
2022/09/10 13:28:28;;;;;;;4.50;2.30;;;13.40;99.90;;;;;;5014980;28;20484;-55
2022/09/10 13:31:10;;;;;;;5.75;2.92;;;13.70;99.90;;;;;;5016478;28;20052;-55
2022/09/10 13:33:53;;;;;;;6.72;2.58;;;13.90;99.90;;;;;;5024000;28;20759;-55